Terminal Aerodrome Forecast
Issued by NWS

Home | Current Version | Previous Version | Text Only | Print | Product List | Glossary Off
Versions: 1 2 3 4 5 6 7 8 9 10 11 12 13 14 15 16 17 18 19 20 21 22 23 24 25 26 27 28 29 30 31 32 33 34 35 36 37 38 39 40 41 42 43 44 45 46 47

000
FTUS43 KGRB 200300 AAA
TAFRHI
TAF AMD
KRHI 200307Z 2003/2024 33004KT P6SM SCT012 BKN035
     FM200400 32003KT 3SM BR SCT005 BKN010
      TEMPO 2004/2006 1SM BR BKN003
     FM200600 33003KT 1/4SM FG VV002
     FM201400 32004KT 2SM BR OVC005
     FM201600 32004KT 4SM HZ BKN012
     FM201800 31004KT P6SM BKN030=

USA.gov is the U.S. government's official web portal to all federal, state and local government web resources and services.